Coldspring, Texas
Current Conditions -  °F | °C
As of 7:53 PM on Saturday 22 Nov 2014 (Local Time) from KCXO Reporting Station
Overcast Overcast  
Wind Chill: 66°   Ceiling: 700
Heat Index: 66°   Visibility: 8mi
Dew Point: 64°   Wind: 9mph
Humidity: 93%   Direction: 160°SSE
Pressure: 29.82"   Gusts: NA
Location:  30.59°N, 95.13°W
Report Text: KCXO 230153Z 16008KT 8SM BKN007 OVC013 19/18 A2982 RMK AO2 RAE05 CIG 005V010 SLP097 P0000 T01890178
Loading
Personal Weather Stations






























Interactive Weather Map New forecast layout! Learn more

10-Day Weather Forecast

Advertisements
Track Severe Weather on mobile